Time;durP1;ratioP1;P1;durP2;ratioP2;P2;SDS_P1;SDS_P2;PMS_P1;PMS_P2;Temp;Humidity;BMP_temperature;BMP_pressure;BME280_temperature;BME280_humidity;BME280_pressure;Samples;Min_cycle;Max_cycle;Signal;HPM_P1;HPM_P2
2023/12/17 00:01:30;;;;;;;9.43;8.52;;;;;;;;;;5077911;28;20469;-80
2023/12/17 00:03:56;;;;;;;8.97;8.17;;;;;;;;;;5062629;28;20384;-80
2023/12/17 00:06:22;;;;;;;9.10;8.30;;;;;;;;;;5056099;28;20846;-80
2023/12/17 00:08:51;;;;;;;9.32;8.52;;;;;;;;;;5055675;28;20475;-81
2023/12/17 00:11:17;;;;;;;9.20;8.40;;;;;;;;;;5055136;28;20435;-81
2023/12/17 00:13:43;;;;;;;9.70;8.80;;;;;;;;;;5056137;28;20386;-81
2023/12/17 00:16:09;;;;;;;9.25;8.45;;;;;;;;;;5055917;28;20389;-81
2023/12/17 00:18:35;;;;;;;10.40;9.40;;;;;;;;;;5056607;28;20397;-80
2023/12/17 00:21:01;;;;;;;10.00;9.10;;;;;;;;;;5055429;28;20412;-81
2023/12/17 00:23:27;;;;;;;10.68;9.68;;;;;;;;;;5056822;28;20427;-80
2023/12/17 00:25:53;;;;;;;9.75;8.75;;;;;;;;;;5056348;28;20422;-81
2023/12/17 00:28:19;;;;;;;10.65;9.60;;;;;;;;;;5055791;28;20390;-81
2023/12/17 00:30:46;;;;;;;11.67;10.57;;;;;;;;;;5056112;28;20373;-81
2023/12/17 00:33:12;;;;;;;11.60;10.40;;;;;;;;;;5056016;28;20384;-81
2023/12/17 00:35:38;;;;;;;11.40;10.20;;;;;;;;;;5055863;28;20382;-81
2023/12/17 00:38:04;;;;;;;11.40;10.20;;;;;;;;;;5055105;28;20397;-80
2023/12/17 00:40:30;;;;;;;12.50;11.23;;;;;;;;;;5055666;28;20901;-81
2023/12/17 00:42:56;;;;;;;11.82;10.15;;;;;;;;;;5055517;28;20381;-80
2023/12/17 00:45:22;;;;;;;12.02;10.70;;;;;;;;;;5055841;28;20416;-81
2023/12/17 00:47:48;;;;;;;12.30;11.00;;;;;;;;;;5054663;28;20409;-81
2023/12/17 00:50:14;;;;;;;11.80;10.60;;;;;;;;;;5054690;28;20378;-81
2023/12/17 00:52:40;;;;;;;12.05;10.75;;;;;;;;;;5057546;28;20383;-81
2023/12/17 00:55:06;;;;;;;12.13;10.85;;;;;;;;;;5055398;28;20385;-81
2023/12/17 00:57:32;;;;;;;10.70;9.70;;;;;;;;;;5072968;28;20470;-81
2023/12/17 00:59:59;;;;;;;10.70;9.70;;;;;;;;;;5075740;28;20384;-81
2023/12/17 01:02:25;;;;;;;11.10;10.00;;;;;;;;;;5059662;28;20890;-81
2023/12/17 01:04:51;;;;;;;10.38;9.38;;;;;;;;;;5055606;28;20870;-81
2023/12/17 01:07:17;;;;;;;10.85;9.75;;;;;;;;;;5055841;28;20462;-81
2023/12/17 01:09:43;;;;;;;10.90;9.77;;;;;;;;;;5054900;28;20374;-80
2023/12/17 01:12:08;;;;;;;11.02;9.93;;;;;;;;;;5055268;28;20382;-80
2023/12/17 01:14:35;;;;;;;11.13;10.00;;;;;;;;;;5055100;28;20389;-81
2023/12/17 01:17:01;;;;;;;11.82;10.60;;;;;;;;;;5055364;28;20389;-81
2023/12/17 01:19:27;;;;;;;15.45;12.02;;;;;;;;;;5054746;28;20401;-81
2023/12/17 01:21:53;;;;;;;21.08;14.20;;;;;;;;;;5055633;28;20396;-80
2023/12/17 01:24:19;;;;;;;19.80;13.40;;;;;;;;;;5058929;28;20385;-81
2023/12/17 01:26:45;;;;;;;23.67;13.63;;;;;;;;;;5058103;28;20421;-81
2023/12/17 01:29:11;;;;;;;12.27;10.65;;;;;;;;;;5075374;28;20388;-81
2023/12/17 01:31:37;;;;;;;13.82;12.18;;;;;;;;;;5074956;28;20801;-81
2023/12/17 01:34:03;;;;;;;13.40;11.45;;;;;;;;;;5075841;28;20463;-81
2023/12/17 01:36:29;;;;;;;12.25;10.95;;;;;;;;;;5072166;28;20391;-80
2023/12/17 01:38:55;;;;;;;11.57;10.48;;;;;;;;;;5063934;28;20849;-81
2023/12/17 01:41:21;;;;;;;11.20;10.07;;;;;;;;;;5066328;28;20418;-81
2023/12/17 01:43:47;;;;;;;11.60;10.40;;;;;;;;;;5062565;28;20403;-81
2023/12/17 01:46:14;;;;;;;10.98;9.85;;;;;;;;;;5064974;28;20405;-81
2023/12/17 01:48:41;;;;;;;11.20;9.90;;;;;;;;;;5062724;28;20458;-81
2023/12/17 01:51:07;;;;;;;9.80;8.80;;;;;;;;;;5077233;28;20379;-80
2023/12/17 01:53:34;;;;;;;10.52;9.50;;;;;;;;;;5061252;28;20429;-81
2023/12/17 01:56:00;;;;;;;9.20;8.27;;;;;;;;;;5071013;28;20420;-80
2023/12/17 01:58:27;;;;;;;9.80;8.82;;;;;;;;;;5070099;28;20857;-81
2023/12/17 02:00:54;;;;;;;9.87;8.97;;;;;;;;;;5040268;28;20769;-81
2023/12/17 02:03:20;;;;;;;9.05;8.15;;;;;;;;;;5058477;28;20518;-81
2023/12/17 02:05:46;;;;;;;9.07;8.13;;;;;;;;;;5070450;28;20395;-81
2023/12/17 02:08:12;;;;;;;10.35;9.18;;;;;;;;;;5059375;28;20382;-81
2023/12/17 02:10:38;;;;;;;10.13;9.10;;;;;;;;;;5057670;28;20409;-81
2023/12/17 02:13:04;;;;;;;11.05;9.77;;;;;;;;;;5057713;28;20447;-80
2023/12/17 02:15:30;;;;;;;10.75;9.35;;;;;;;;;;5057659;28;20404;-81
2023/12/17 02:17:56;;;;;;;10.65;9.55;;;;;;;;;;5057438;28;20392;-81
2023/12/17 02:20:22;;;;;;;10.93;9.63;;;;;;;;;;5057922;28;20796;-81
2023/12/17 02:22:50;;;;;;;10.40;9.30;;;;;;;;;;5069753;28;20379;-80
2023/12/17 02:25:16;;;;;;;11.07;9.88;;;;;;;;;;5073401;28;20396;-81
2023/12/17 02:27:43;;;;;;;11.15;9.82;;;;;;;;;;5057347;28;20393;-81
2023/12/17 02:30:10;;;;;;;10.70;9.57;;;;;;;;;;5057278;28;20416;-81
2023/12/17 02:32:36;;;;;;;10.32;9.32;;;;;;;;;;5057853;28;20378;-81
2023/12/17 02:35:02;;;;;;;11.48;10.27;;;;;;;;;;5056638;28;20472;-81
2023/12/17 02:37:28;;;;;;;11.63;10.43;;;;;;;;;;5057093;28;20738;-81
2023/12/17 02:39:54;;;;;;;12.15;9.85;;;;;;;;;;5057199;28;20387;-81
2023/12/17 02:42:21;;;;;;;10.93;9.82;;;;;;;;;;5056890;28;20388;-81
2023/12/17 02:44:47;;;;;;;11.80;10.32;;;;;;;;;;5057612;28;20377;-81
2023/12/17 02:47:13;;;;;;;11.18;9.82;;;;;;;;;;5056412;28;20414;-81
2023/12/17 02:49:41;;;;;;;11.80;10.48;;;;;;;;;;5056747;28;20392;-81
2023/12/17 02:52:07;;;;;;;11.73;10.52;;;;;;;;;;5056127;28;20717;-81
2023/12/17 02:54:33;;;;;;;11.85;10.52;;;;;;;;;;5057179;28;20397;-81
2023/12/17 02:56:59;;;;;;;12.10;10.70;;;;;;;;;;5069379;28;20387;-81
2023/12/17 02:59:25;;;;;;;11.25;10.15;;;;;;;;;;5059060;28;20389;-81
2023/12/17 03:01:51;;;;;;;11.43;10.27;;;;;;;;;;5059863;28;20443;-81
2023/12/17 03:04:17;;;;;;;10.60;9.60;;;;;;;;;;5060336;28;20389;-81
2023/12/17 03:06:44;;;;;;;11.07;9.98;;;;;;;;;;5057001;28;20412;-81
2023/12/17 03:09:11;;;;;;;12.27;10.52;;;;;;;;;;5056305;28;20390;-81
2023/12/17 03:11:37;;;;;;;12.40;10.63;;;;;;;;;;5056659;28;20381;-80
2023/12/17 03:14:03;;;;;;;12.52;11.15;;;;;;;;;;5056766;28;20380;-81
2023/12/17 03:16:29;;;;;;;13.70;11.73;;;;;;;;;;5056332;28;20382;-81
2023/12/17 03:18:55;;;;;;;12.68;11.02;;;;;;;;;;5057010;28;20409;-81
2023/12/17 03:21:23;;;;;;;13.23;11.05;;;;;;;;;;5056973;28;20382;-81
2023/12/17 03:23:50;;;;;;;14.40;11.70;;;;;;;;;;5056716;28;20382;-81
2023/12/17 03:26:16;;;;;;;13.68;11.68;;;;;;;;;;5056317;28;20882;-81
2023/12/17 03:28:42;;;;;;;13.63;10.85;;;;;;;;;;5057123;28;20771;-81
2023/12/17 03:31:08;;;;;;;14.35;11.52;;;;;;;;;;5056959;28;20435;-81
2023/12/17 03:33:34;;;;;;;14.07;11.65;;;;;;;;;;5056930;28;20377;-81
2023/12/17 03:35:59;;;;;;;14.07;11.43;;;;;;;;;;5056955;28;20435;-81
2023/12/17 03:38:26;;;;;;;15.20;12.02;;;;;;;;;;5056719;28;20377;-81
2023/12/17 03:40:52;;;;;;;15.55;11.82;;;;;;;;;;5059643;28;20380;-81
2023/12/17 03:43:18;;;;;;;13.03;11.30;;;;;;;;;;5061973;28;20971;-80
2023/12/17 03:45:44;;;;;;;12.20;10.88;;;;;;;;;;5068387;28;20452;-81
2023/12/17 03:48:10;;;;;;;12.85;11.07;;;;;;;;;;5056499;28;20421;-81
2023/12/17 03:50:36;;;;;;;12.40;11.10;;;;;;;;;;5070522;28;20365;-81
2023/12/17 03:53:02;;;;;;;14.10;11.30;;;;;;;;;;5056844;28;20464;-81
2023/12/17 03:55:28;;;;;;;13.52;11.18;;;;;;;;;;5056170;28;20392;-80
2023/12/17 03:57:54;;;;;;;12.88;10.50;;;;;;;;;;5070628;28;20394;-81
2023/12/17 04:00:20;;;;;;;11.60;10.40;;;;;;;;;;5056668;28;20461;-81
2023/12/17 04:02:46;;;;;;;11.15;10.05;;;;;;;;;;5055925;28;20409;-81
2023/12/17 04:05:12;;;;;;;13.35;10.27;;;;;;;;;;5056094;28;20377;-81
2023/12/17 04:07:38;;;;;;;12.52;11.10;;;;;;;;;;5056013;28;20763;-80
2023/12/17 04:10:04;;;;;;;12.20;10.43;;;;;;;;;;5055842;28;20392;-80
2023/12/17 04:12:30;;;;;;;12.27;10.98;;;;;;;;;;5055267;28;20380;-80
2023/12/17 04:14:56;;;;;;;13.32;11.25;;;;;;;;;;5055777;28;20377;-80
2023/12/17 04:17:22;;;;;;;12.90;11.40;;;;;;;;;;5055976;28;20839;-81
2023/12/17 04:19:48;;;;;;;14.40;11.52;;;;;;;;;;5056547;28;20377;-80
2023/12/17 04:22:14;;;;;;;13.43;11.45;;;;;;;;;;5056535;28;20758;-80
2023/12/17 04:24:40;;;;;;;12.30;10.82;;;;;;;;;;5056071;28;20382;-81
2023/12/17 04:27:06;;;;;;;12.55;11.32;;;;;;;;;;5055455;28;20407;-80
2023/12/17 04:29:33;;;;;;;11.82;10.63;;;;;;;;;;5055725;28;20384;-81
2023/12/17 04:31:59;;;;;;;11.55;10.40;;;;;;;;;;5056018;28;20380;-80
2023/12/17 04:34:25;;;;;;;12.07;10.80;;;;;;;;;;5055009;28;20385;-81
2023/12/17 04:36:51;;;;;;;12.00;10.80;;;;;;;;;;5069596;28;20385;-81
2023/12/17 04:39:17;;;;;;;11.98;10.73;;;;;;;;;;5055651;28;20754;-81
2023/12/17 04:41:42;;;;;;;12.10;10.80;;;;;;;;;;5056264;28;20383;-81
2023/12/17 04:44:08;;;;;;;11.00;9.90;;;;;;;;;;5055173;28;20411;-81
2023/12/17 04:46:35;;;;;;;11.02;9.98;;;;;;;;;;5055354;28;20478;-81
2023/12/17 04:49:01;;;;;;;11.90;10.60;;;;;;;;;;5035742;28;20396;-81
2023/12/17 04:51:27;;;;;;;12.35;9.95;;;;;;;;;;5035097;28;20382;-81
2023/12/17 04:53:53;;;;;;;10.60;9.52;;;;;;;;;;5035538;28;20797;-81
2023/12/17 04:56:21;;;;;;;10.52;9.35;;;;;;;;;;5035299;28;20429;-81
2023/12/17 04:58:47;;;;;;;9.30;8.40;;;;;;;;;;5038682;28;20379;-81
2023/12/17 05:01:13;;;;;;;9.55;8.65;;;;;;;;;;5039491;28;20394;-81
2023/12/17 05:03:39;;;;;;;9.63;8.30;;;;;;;;;;5039465;28;20386;-81
2023/12/17 05:06:06;;;;;;;9.60;8.55;;;;;;;;;;5037309;28;20418;-81
2023/12/17 05:08:33;;;;;;;9.68;8.25;;;;;;;;;;5039188;28;20465;-81
2023/12/17 05:10:58;;;;;;;9.05;8.15;;;;;;;;;;5039104;28;20379;-81
2023/12/17 05:13:24;;;;;;;9.33;8.37;;;;;;;;;;5039091;28;20394;-81
2023/12/17 05:15:50;;;;;;;8.90;8.00;;;;;;;;;;5039849;28;20413;-81
2023/12/17 05:18:17;;;;;;;9.07;8.20;;;;;;;;;;5039169;28;20805;-81
2023/12/17 05:20:45;;;;;;;9.40;8.40;;;;;;;;;;5039154;28;20429;-81
2023/12/17 05:23:12;;;;;;;9.33;8.03;;;;;;;;;;5039137;28;20394;-81
2023/12/17 05:25:38;;;;;;;10.67;8.30;;;;;;;;;;5039926;28;20567;-81
2023/12/17 05:28:04;;;;;;;8.82;7.93;;;;;;;;;;5039725;28;20422;-81
2023/12/17 05:30:31;;;;;;;8.40;7.60;;;;;;;;;;5039200;28;20425;-81
2023/12/17 05:32:57;;;;;;;8.93;8.07;;;;;;;;;;5038618;28;20383;-81
2023/12/17 05:35:23;;;;;;;8.93;8.10;;;;;;;;;;5039340;28;20428;-81
2023/12/17 05:37:48;;;;;;;8.52;7.68;;;;;;;;;;5038907;28;20382;-81
2023/12/17 05:40:15;;;;;;;8.75;7.90;;;;;;;;;;5038762;28;20386;-81
2023/12/17 05:42:40;;;;;;;9.07;8.17;;;;;;;;;;5038907;28;20379;-81
2023/12/17 05:45:07;;;;;;;8.30;7.50;;;;;;;;;;5038526;28;20433;-81
2023/12/17 05:47:34;;;;;;;8.70;7.90;;;;;;;;;;5055008;28;20408;-81
2023/12/17 05:50:01;;;;;;;8.02;7.30;;;;;;;;;;5063494;28;20381;-81
2023/12/17 05:52:27;;;;;;;8.95;8.05;;;;;;;;;;5058159;28;20846;-81
2023/12/17 05:54:53;;;;;;;8.32;7.63;;;;;;;;;;5059133;28;20377;-81
2023/12/17 05:57:19;;;;;;;10.23;9.13;;;;;;;;;;5071941;28;20753;-81
2023/12/17 05:59:45;;;;;;;9.57;8.63;;;;;;;;;;5058659;28;20377;-81
2023/12/17 06:02:11;;;;;;;9.45;8.15;;;;;;;;;;5058409;28;20730;-81
2023/12/17 06:04:37;;;;;;;9.70;8.60;;;;;;;;;;5058176;28;20447;-81
2023/12/17 06:07:03;;;;;;;9.68;8.70;;;;;;;;;;5058193;28;20444;-81
2023/12/17 06:09:29;;;;;;;11.05;8.82;;;;;;;;;;5057341;28;20382;-81
2023/12/17 06:11:57;;;;;;;10.70;9.03;;;;;;;;;;5058320;28;20411;-81
2023/12/17 06:14:23;;;;;;;11.27;8.30;;;;;;;;;;5057623;28;20515;-81
2023/12/17 06:16:49;;;;;;;9.38;8.38;;;;;;;;;;5058061;28;20390;-81
2023/12/17 06:19:15;;;;;;;10.97;8.73;;;;;;;;;;5057704;28;20396;-81
2023/12/17 06:21:41;;;;;;;9.68;8.18;;;;;;;;;;5057447;28;20809;-81
2023/12/17 06:24:07;;;;;;;9.32;8.40;;;;;;;;;;5057974;28;20393;-81
2023/12/17 06:26:36;;;;;;;8.77;7.88;;;;;;;;;;5071344;28;20471;-81
2023/12/17 06:29:02;;;;;;;9.15;8.20;;;;;;;;;;5058358;28;20431;-81
2023/12/17 06:31:28;;;;;;;8.50;7.63;;;;;;;;;;5057439;28;20389;-81
2023/12/17 06:33:54;;;;;;;8.60;7.80;;;;;;;;;;5057685;28;20758;-81
2023/12/17 06:36:23;;;;;;;8.90;8.10;;;;;;;;;;5057554;28;20388;-81
2023/12/17 06:38:49;;;;;;;9.32;8.43;;;;;;;;;;5057686;28;20386;-81
2023/12/17 06:41:18;;;;;;;9.20;8.30;;;;;;;;;;5057654;28;20401;-81
2023/12/17 06:43:44;;;;;;;8.82;7.95;;;;;;;;;;5056447;28;20426;-82
2023/12/17 06:46:15;;;;;;;8.82;7.97;;;;;;;;;;5056365;28;20763;-82
2023/12/17 06:48:41;;;;;;;9.23;8.32;;;;;;;;;;5061199;28;20829;-82
2023/12/17 06:51:07;;;;;;;8.55;7.60;;;;;;;;;;5066608;28;20447;-82
2023/12/17 06:53:33;;;;;;;9.13;8.23;;;;;;;;;;5056743;28;20393;-82
2023/12/17 06:55:59;;;;;;;8.88;8.02;;;;;;;;;;5060891;28;20937;-82
2023/12/17 06:58:25;;;;;;;9.10;8.20;;;;;;;;;;5066348;28;20381;-82
2023/12/17 07:00:51;;;;;;;8.90;8.00;;;;;;;;;;5056531;28;20393;-82
2023/12/17 07:03:18;;;;;;;9.57;8.57;;;;;;;;;;5064682;28;20391;-82
2023/12/17 07:05:45;;;;;;;9.57;8.67;;;;;;;;;;5062436;28;20889;-82
2023/12/17 07:08:11;;;;;;;9.50;8.60;;;;;;;;;;5056717;28;20381;-83
2023/12/17 07:10:37;;;;;;;9.38;8.30;;;;;;;;;;5056914;28;20385;-84
2023/12/17 07:13:03;;;;;;;10.50;9.13;;;;;;;;;;5057182;28;20382;-81
2023/12/17 07:15:29;;;;;;;10.00;9.00;;;;;;;;;;5056654;28;20461;-82
2023/12/17 07:17:55;;;;;;;10.48;9.35;;;;;;;;;;5056001;28;20480;-83
2023/12/17 07:20:21;;;;;;;10.70;9.15;;;;;;;;;;5055317;28;20417;-80
2023/12/17 07:22:51;;;;;;;10.65;9.57;;;;;;;;;;5056127;28;20416;-83
2023/12/17 07:25:18;;;;;;;10.52;9.40;;;;;;;;;;5058037;28;20484;-81
2023/12/17 07:27:44;;;;;;;10.15;8.82;;;;;;;;;;5056667;28;20381;-82
2023/12/17 07:30:10;;;;;;;10.38;9.27;;;;;;;;;;5057313;28;20392;-81
2023/12/17 07:32:36;;;;;;;12.25;10.23;;;;;;;;;;5057702;28;20378;-81
2023/12/17 07:35:03;;;;;;;11.13;9.27;;;;;;;;;;5056886;28;20727;-82
2023/12/17 07:37:29;;;;;;;11.02;9.40;;;;;;;;;;5067552;28;20465;-81
2023/12/17 07:39:56;;;;;;;11.43;9.35;;;;;;;;;;5061805;28;20389;-83
2023/12/17 07:42:23;;;;;;;12.15;9.82;;;;;;;;;;5058159;28;20482;-82
2023/12/17 07:44:49;;;;;;;11.00;9.45;;;;;;;;;;5058577;28;20385;-82
2023/12/17 07:47:15;;;;;;;10.82;9.45;;;;;;;;;;5061878;28;20411;-83
2023/12/17 07:49:41;;;;;;;11.90;9.65;;;;;;;;;;5065006;28;20381;-81
2023/12/17 07:52:07;;;;;;;11.18;9.18;;;;;;;;;;5058942;28;20381;-81
2023/12/17 07:54:33;;;;;;;11.48;9.85;;;;;;;;;;5060940;28;20484;-81
2023/12/17 07:56:59;;;;;;;11.25;9.20;;;;;;;;;;5067226;28;20382;-82
2023/12/17 07:59:28;;;;;;;11.05;9.55;;;;;;;;;;5056492;28;20385;-84
2023/12/17 08:01:54;;;;;;;11.03;9.37;;;;;;;;;;5056765;28;20426;-83
2023/12/17 08:04:20;;;;;;;11.18;9.68;;;;;;;;;;5056067;28;20435;-81
2023/12/17 08:06:46;;;;;;;11.23;9.95;;;;;;;;;;5056196;28;20406;-81
2023/12/17 08:09:12;;;;;;;11.45;9.50;;;;;;;;;;5056266;28;20397;-81
2023/12/17 08:11:38;;;;;;;11.48;9.85;;;;;;;;;;5056377;28;20373;-81
2023/12/17 08:14:04;;;;;;;10.15;9.00;;;;;;;;;;5054613;28;20373;-81
2023/12/17 08:16:30;;;;;;;10.93;9.55;;;;;;;;;;5055874;28;20400;-81
2023/12/17 08:18:56;;;;;;;11.00;9.68;;;;;;;;;;5057073;28;20381;-81
2023/12/17 08:21:22;;;;;;;12.15;9.98;;;;;;;;;;5056753;28;20392;-81
2023/12/17 08:23:48;;;;;;;12.05;9.85;;;;;;;;;;5055942;28;20400;-81
2023/12/17 08:26:14;;;;;;;13.93;10.88;;;;;;;;;;5070110;28;20773;-81
2023/12/17 08:28:40;;;;;;;13.05;10.50;;;;;;;;;;5056246;28;20409;-81
2023/12/17 08:31:09;;;;;;;15.52;11.10;;;;;;;;;;5057718;28;20431;-81
2023/12/17 08:33:35;;;;;;;13.70;10.80;;;;;;;;;;5054589;28;20405;-80
2023/12/17 08:36:01;;;;;;;17.75;13.68;;;;;;;;;;5054414;28;20387;-80
2023/12/17 08:38:27;;;;;;;14.67;11.33;;;;;;;;;;5055212;28;20457;-81
2023/12/17 08:40:54;;;;;;;14.68;11.75;;;;;;;;;;5054346;28;20386;-82
2023/12/17 08:43:20;;;;;;;14.43;11.18;;;;;;;;;;5037397;28;20419;-82
2023/12/17 08:45:46;;;;;;;30.00;22.20;;;;;;;;;;5055317;28;20410;-83
2023/12/17 08:48:13;;;;;;;22.13;17.17;;;;;;;;;;5055099;28;20404;-83
2023/12/17 08:50:39;;;;;;;13.85;11.07;;;;;;;;;;5054947;28;20373;-83
2023/12/17 08:53:05;;;;;;;16.70;13.30;;;;;;;;;;5055461;28;20496;-83
2023/12/17 08:55:31;;;;;;;16.77;12.18;;;;;;;;;;5055092;28;20365;-83
2023/12/17 08:57:56;;;;;;;16.50;12.48;;;;;;;;;;5068653;28;20373;-83
2023/12/17 09:00:23;;;;;;;15.93;11.87;;;;;;;;;;5054635;28;20382;-81
2023/12/17 09:02:48;;;;;;;13.23;11.00;;;;;;;;;;5055579;28;20377;-83
2023/12/17 09:05:14;;;;;;;15.40;12.07;;;;;;;;;;5055080;28;20835;-83
2023/12/17 09:07:41;;;;;;;13.07;10.98;;;;;;;;;;5054918;28;20474;-83
2023/12/17 09:10:07;;;;;;;15.50;11.82;;;;;;;;;;5054513;28;20473;-83
2023/12/17 09:12:33;;;;;;;14.77;11.35;;;;;;;;;;5055420;28;20381;-83
2023/12/17 09:14:59;;;;;;;17.57;12.37;;;;;;;;;;5053851;28;20797;-83
2023/12/17 09:17:26;;;;;;;18.35;13.05;;;;;;;;;;5055997;28;20378;-83
2023/12/17 09:19:52;;;;;;;19.08;13.70;;;;;;;;;;5056246;28;20372;-83
2023/12/17 09:22:18;;;;;;;20.38;14.70;;;;;;;;;;5056026;28;20807;-80
2023/12/17 09:24:44;;;;;;;24.48;17.10;;;;;;;;;;5054841;28;20735;-82
2023/12/17 09:27:11;;;;;;;21.33;16.05;;;;;;;;;;5054466;28;20410;-81
2023/12/17 09:29:37;;;;;;;24.88;17.70;;;;;;;;;;5054391;28;20377;-81
2023/12/17 09:32:03;;;;;;;19.13;14.30;;;;;;;;;;5054604;28;20469;-81
2023/12/17 09:34:29;;;;;;;19.13;14.23;;;;;;;;;;5055390;28;20489;-81
2023/12/17 09:36:55;;;;;;;17.63;13.40;;;;;;;;;;5054494;28;20432;-81
2023/12/17 09:39:21;;;;;;;16.98;12.88;;;;;;;;;;5055287;28;20373;-81
2023/12/17 09:41:47;;;;;;;18.88;13.27;;;;;;;;;;5071659;28;20412;-81
2023/12/17 09:44:13;;;;;;;16.33;12.80;;;;;;;;;;5057528;28;20476;-81
2023/12/17 09:46:40;;;;;;;21.70;15.18;;;;;;;;;;5061036;28;20404;-80
2023/12/17 09:49:06;;;;;;;21.57;15.80;;;;;;;;;;5071200;28;20496;-81
2023/12/17 09:51:36;;;;;;;21.17;15.13;;;;;;;;;;5057590;28;20389;-81
2023/12/17 09:54:05;;;;;;;22.55;15.80;;;;;;;;;;5058418;28;20422;-82
2023/12/17 09:56:31;;;;;;;19.33;14.90;;;;;;;;;;5057851;28;20388;-81
2023/12/17 09:58:57;;;;;;;18.63;14.43;;;;;;;;;;5058170;28;20396;-81
2023/12/17 10:01:23;;;;;;;25.53;16.47;;;;;;;;;;5057944;28;20389;-83
2023/12/17 10:03:49;;;;;;;32.58;19.17;;;;;;;;;;5058269;28;20388;-83
2023/12/17 10:06:19;;;;;;;37.83;20.27;;;;;;;;;;5057605;28;20873;-83
2023/12/17 10:08:45;;;;;;;40.22;20.23;;;;;;;;;;5057903;28;20454;-80
2023/12/17 10:11:11;;;;;;;39.10;21.20;;;;;;;;;;5057192;28;20385;-81
2023/12/17 10:13:37;;;;;;;41.28;21.17;;;;;;;;;;5057503;28;20389;-81
2023/12/17 10:16:03;;;;;;;45.28;22.48;;;;;;;;;;5057669;28;20386;-81
2023/12/17 10:18:29;;;;;;;38.97;22.00;;;;;;;;;;5057637;28;20400;-81
2023/12/17 10:20:56;;;;;;;36.15;20.20;;;;;;;;;;5057989;28;20384;-81
2023/12/17 10:23:22;;;;;;;30.33;19.45;;;;;;;;;;5058407;28;20731;-81
2023/12/17 10:25:58;;;;;;;29.90;18.73;;;;;;;;;;5057945;28;20495;-81
2023/12/17 10:28:24;;;;;;;25.98;17.55;;;;;;;;;;5057705;28;20390;-81
2023/12/17 10:30:51;;;;;;;22.83;16.17;;;;;;;;;;5058332;28;20378;-81
2023/12/17 10:33:22;;;;;;;20.98;15.27;;;;;;;;;;5057518;28;20724;-83
2023/12/17 10:35:48;;;;;;;19.70;14.95;;;;;;;;;;5057656;28;20384;-81
2023/12/17 10:38:15;;;;;;;18.08;13.63;;;;;;;;;;5057166;28;20385;-81
2023/12/17 10:40:42;;;;;;;17.85;13.88;;;;;;;;;;5057772;28;20447;-81
2023/12/17 10:43:09;;;;;;;16.00;13.30;;;;;;;;;;5057674;28;20771;-81
2023/12/17 10:45:38;;;;;;;17.40;13.77;;;;;;;;;;5057051;28;20747;-81
2023/12/17 10:48:05;;;;;;;23.83;16.73;;;;;;;;;;5057199;28;20401;-81
2023/12/17 10:50:31;;;;;;;24.13;17.30;;;;;;;;;;5056667;28;20394;-82
2023/12/17 10:52:57;;;;;;;28.25;18.42;;;;;;;;;;5057075;28;20389;-82
2023/12/17 10:55:23;;;;;;;26.40;17.30;;;;;;;;;;5055730;28;20416;-82
2023/12/17 10:57:52;;;;;;;27.45;17.95;;;;;;;;;;5071063;28;20886;-83
2023/12/17 11:00:19;;;;;;;24.83;17.13;;;;;;;;;;5057178;28;20439;-83
2023/12/17 11:02:47;;;;;;;25.95;17.10;;;;;;;;;;5057283;28;20420;-82
2023/12/17 11:05:13;;;;;;;24.53;17.00;;;;;;;;;;5055750;28;20420;-83
2023/12/17 11:07:39;;;;;;;25.92;18.15;;;;;;;;;;5055712;28;20413;-81
2023/12/17 11:10:07;;;;;;;28.17;18.42;;;;;;;;;;5057228;28;20384;-83
2023/12/17 11:12:34;;;;;;;26.40;17.55;;;;;;;;;;5056513;28;20368;-82
2023/12/17 11:15:00;;;;;;;28.45;18.88;;;;;;;;;;5056973;28;20754;-83
2023/12/17 11:17:27;;;;;;;27.63;19.17;;;;;;;;;;5056593;28;20389;-83
2023/12/17 11:19:56;;;;;;;25.92;17.52;;;;;;;;;;5056786;28;20382;-82
2023/12/17 11:22:23;;;;;;;23.83;16.90;;;;;;;;;;5058978;28;20421;-83
2023/12/17 11:24:50;;;;;;;25.05;17.30;;;;;;;;;;5055987;28;20409;-83
2023/12/17 11:27:19;;;;;;;24.13;16.38;;;;;;;;;;5056752;28;20404;-83
2023/12/17 11:29:45;;;;;;;26.15;17.10;;;;;;;;;;5056784;28;20381;-80
2023/12/17 11:32:12;;;;;;;22.73;16.57;;;;;;;;;;5056719;28;20390;-81
2023/12/17 11:34:38;;;;;;;20.37;15.17;;;;;;;;;;5056575;28;20431;-80
2023/12/17 11:37:04;;;;;;;23.73;16.50;;;;;;;;;;5056672;28;20386;-82
2023/12/17 11:39:30;;;;;;;21.35;15.93;;;;;;;;;;5056541;28;20400;-82
2023/12/17 11:41:57;;;;;;;21.33;16.30;;;;;;;;;;5063461;28;20453;-82
2023/12/17 11:44:23;;;;;;;18.05;14.23;;;;;;;;;;5065175;28;20743;-83
2023/12/17 11:46:50;;;;;;;16.70;14.07;;;;;;;;;;5056342;28;20413;-83
2023/12/17 11:49:26;;;;;;;16.50;13.93;;;;;;;;;;5056547;28;20385;-83
2023/12/17 11:51:52;;;;;;;15.57;13.57;;;;;;;;;;5056308;28;20439;-83
2023/12/17 11:54:19;;;;;;;15.83;13.63;;;;;;;;;;5056495;28;20454;-83
2023/12/17 11:56:45;;;;;;;17.97;13.93;;;;;;;;;;5066182;28;20384;-83
2023/12/17 11:59:11;;;;;;;15.20;12.68;;;;;;;;;;5059238;28;20405;-83
2023/12/17 12:01:37;;;;;;;17.13;13.17;;;;;;;;;;5056497;28;20385;-83
2023/12/17 12:04:03;;;;;;;15.00;12.80;;;;;;;;;;5056384;28;20860;-83
2023/12/17 12:06:29;;;;;;;14.25;12.70;;;;;;;;;;5055750;28;20457;-83
2023/12/17 12:08:56;;;;;;;13.00;11.68;;;;;;;;;;5055978;28;20377;-83
2023/12/17 12:11:29;;;;;;;13.90;12.40;;;;;;;;;;5056148;28;20388;-80
2023/12/17 12:13:56;;;;;;;13.52;11.75;;;;;;;;;;5056275;28;20456;-80
2023/12/17 12:16:22;;;;;;;14.68;12.57;;;;;;;;;;5056575;28;20389;-83
2023/12/17 12:19:00;;;;;;;27.00;17.35;;;;;;;;;;5056710;28;20390;-82
2023/12/17 12:21:26;;;;;;;21.55;13.68;;;;;;;;;;5056044;28;20386;-81
2023/12/17 12:23:53;;;;;;;14.35;12.82;;;;;;;;;;5055452;28;20412;-80
2023/12/17 12:26:19;;;;;;;11.75;10.63;;;;;;;;;;5052562;28;20401;-80
2023/12/17 12:28:50;;;;;;;12.83;11.47;;;;;;;;;;5054825;28;20389;-80
2023/12/17 12:31:16;;;;;;;14.18;12.68;;;;;;;;;;5055365;28;20400;-80
2023/12/17 12:33:51;;;;;;;16.25;13.93;;;;;;;;;;5055494;28;20473;-81
2023/12/17 12:36:17;;;;;;;13.23;11.82;;;;;;;;;;5069014;28;20443;-80
2023/12/17 12:38:43;;;;;;;14.40;12.85;;;;;;;;;;5055375;28;20390;-80
2023/12/17 12:41:13;;;;;;;15.40;13.80;;;;;;;;;;5055194;28;20420;-81
2023/12/17 12:43:40;;;;;;;14.18;12.60;;;;;;;;;;5055311;28;20382;-81
2023/12/17 12:46:06;;;;;;;13.68;12.32;;;;;;;;;;5055237;28;20420;-82
2023/12/17 12:48:33;;;;;;;14.50;13.00;;;;;;;;;;5055050;28;20825;-81
2023/12/17 12:50:59;;;;;;;13.07;11.77;;;;;;;;;;5054954;28;20381;-81
2023/12/17 12:53:25;;;;;;;14.25;12.77;;;;;;;;;;5054390;28;20382;-80
2023/12/17 12:55:51;;;;;;;14.18;12.68;;;;;;;;;;5058206;28;20407;-80
2023/12/17 12:58:17;;;;;;;14.32;12.07;;;;;;;;;;5047749;28;20390;-80
2023/12/17 13:00:45;;;;;;;14.18;12.60;;;;;;;;;;5055388;28;20476;-81
2023/12/17 13:03:11;;;;;;;14.23;12.82;;;;;;;;;;5054199;28;20388;-81
2023/12/17 13:05:37;;;;;;;15.00;13.27;;;;;;;;;;5055215;28;20377;-81
2023/12/17 13:08:04;;;;;;;16.20;13.60;;;;;;;;;;5054779;28;20374;-81
2023/12/17 13:10:30;;;;;;;17.13;13.93;;;;;;;;;;5054566;28;20377;-81
2023/12/17 13:12:57;;;;;;;14.70;13.13;;;;;;;;;;5054735;28;20430;-81
2023/12/17 13:15:23;;;;;;;14.35;12.85;;;;;;;;;;5055427;28;20812;-81
2023/12/17 13:17:49;;;;;;;18.67;14.68;;;;;;;;;;5055468;28;20863;-81
2023/12/17 13:20:15;;;;;;;15.18;13.05;;;;;;;;;;5059344;28;20384;-81
2023/12/17 13:22:41;;;;;;;14.88;13.18;;;;;;;;;;5059119;28;20419;-81
2023/12/17 13:25:08;;;;;;;16.95;14.02;;;;;;;;;;5064819;28;20368;-81
2023/12/17 13:27:34;;;;;;;18.90;15.18;;;;;;;;;;5066027;28;20489;-80
2023/12/17 13:30:00;;;;;;;21.00;16.23;;;;;;;;;;5040026;28;20512;-80
2023/12/17 13:32:27;;;;;;;23.15;17.00;;;;;;;;;;5062252;28;20459;-81
2023/12/17 13:34:53;;;;;;;22.50;16.97;;;;;;;;;;5058255;28;20389;-81
2023/12/17 13:37:19;;;;;;;24.15;17.80;;;;;;;;;;5052660;28;20383;-81
2023/12/17 13:39:45;;;;;;;59.70;37.93;;;;;;;;;;5063117;28;20396;-81
2023/12/17 13:42:12;;;;;;;23.15;17.50;;;;;;;;;;5058659;28;20386;-80
2023/12/17 13:44:38;;;;;;;22.57;16.70;;;;;;;;;;5058008;28;20456;-81
2023/12/17 13:47:04;;;;;;;22.25;17.38;;;;;;;;;;5057498;28;20436;-80
2023/12/17 13:49:35;;;;;;;21.15;16.55;;;;;;;;;;5058235;28;20424;-80
2023/12/17 13:52:02;;;;;;;25.60;17.52;;;;;;;;;;5058657;28;20442;-82
2023/12/17 13:54:31;;;;;;;22.05;16.92;;;;;;;;;;5058353;28;20405;-81
2023/12/17 13:56:57;;;;;;;21.80;16.27;;;;;;;;;;5064846;28;20952;-81
2023/12/17 13:59:23;;;;;;;25.57;17.73;;;;;;;;;;5055824;28;20467;-81
2023/12/17 14:01:49;;;;;;;25.67;17.55;;;;;;;;;;5075413;28;20741;-81
2023/12/17 14:04:15;;;;;;;26.27;18.25;;;;;;;;;;5065046;28;20474;-81
2023/12/17 14:06:41;;;;;;;26.85;18.45;;;;;;;;;;5054901;28;20907;-81
2023/12/17 14:09:07;;;;;;;26.23;18.13;;;;;;;;;;5058806;28;20405;-81
2023/12/17 14:11:33;;;;;;;27.58;18.35;;;;;;;;;;5058202;28;20386;-81
2023/12/17 14:13:59;;;;;;;25.17;18.67;;;;;;;;;;5061540;28;20398;-81
2023/12/17 14:16:29;;;;;;;28.00;19.73;;;;;;;;;;5074516;28;20426;-81
2023/12/17 14:18:55;;;;;;;30.55;19.65;;;;;;;;;;5061313;28;20443;-81